Time;durP1;ratioP1;P1;durP2;ratioP2;P2;SDS_P1;SDS_P2;PMS_P1;PMS_P2;Temp;Humidity;BMP_temperature;BMP_pressure;BME280_temperature;BME280_humidity;BME280_pressure;Samples;Min_cycle;Max_cycle;Signal;HPM_P1;HPM_P2
2022/06/30 00:01:27;;;;;;;0.68;0.68;;;19.70;99.90;;;;;;4981218;28;89686;-34
2022/06/30 00:03:52;;;;;;;0.80;0.80;;;19.70;99.90;;;;;;4981287;28;89078;-33
2022/06/30 00:06:18;;;;;;;0.20;0.15;;;19.60;99.90;;;;;;4981338;28;90025;-36
2022/06/30 00:08:43;;;;;;;0.95;0.45;;;19.60;99.90;;;;;;4980258;28;90097;-34
2022/06/30 00:11:09;;;;;;;0.30;0.30;;;19.50;99.90;;;;;;4981257;28;90103;-35
2022/06/30 00:13:40;;;;;;;0.40;0.10;;;19.40;99.90;;;;;;4980452;28;89272;-35
2022/06/30 00:16:06;;;;;;;0.43;0.43;;;19.40;99.90;;;;;;4981483;28;90012;-36
2022/06/30 00:18:33;;;;;;;0.30;0.30;;;19.40;99.90;;;;;;4980223;28;90457;-39
2022/06/30 00:20:58;;;;;;;0.20;0.10;;;19.30;99.90;;;;;;4980317;28;89327;-36
2022/06/30 00:23:24;;;;;;;0.40;0.40;;;19.20;99.90;;;;;;4980577;28;89007;-40
2022/06/30 00:25:50;;;;;;;0.20;0.10;;;19.20;99.90;;;;;;4980642;28;89378;-40
2022/06/30 00:28:19;;;;;;;0.90;0.68;;;19.10;99.90;;;;;;4981095;28;90703;-34
2022/06/30 00:30:46;;;;;;;0.40;0.28;;;19.10;99.90;;;;;;4979978;28;89340;-34
2022/06/30 00:33:12;;;;;;;0.20;0.15;;;19.00;99.90;;;;;;4979949;28;90333;-34
2022/06/30 00:35:38;;;;;;;0.20;0.10;;;18.90;99.90;;;;;;4980846;28;89410;-33
2022/06/30 00:38:04;;;;;;;0.30;0.30;;;18.90;99.90;;;;;;4977207;28;90072;-34
2022/06/30 00:40:37;;;;;;;0.25;0.25;;;18.80;99.90;;;;;;4969290;28;90702;-34
2022/06/30 00:43:03;;;;;;;0.20;0.10;;;18.90;99.90;;;;;;4979977;28;90788;-36
2022/06/30 00:45:28;;;;;;;0.30;0.30;;;18.80;99.90;;;;;;4981038;28;89145;-36
2022/06/30 00:47:55;;;;;;;0.20;0.17;;;18.70;99.90;;;;;;4980222;28;92122;-36
2022/06/30 00:50:21;;;;;;;0.60;0.60;;;18.70;99.90;;;;;;4980356;28;89763;-32
2022/06/30 00:52:50;;;;;;;4.38;2.50;;;18.60;99.90;;;;;;4980301;28;89473;-35
2022/06/30 00:55:17;;;;;;;0.52;0.52;;;18.60;99.90;;;;;;4980428;28;90213;-35
2022/06/30 00:57:44;;;;;;;0.20;0.10;;;18.60;99.90;;;;;;4979812;28;90427;-35
2022/06/30 01:00:11;;;;;;;0.25;0.25;;;18.60;99.90;;;;;;4980051;28;90993;-32
2022/06/30 01:02:37;;;;;;;0.50;0.22;;;18.60;99.90;;;;;;4979953;28;89198;-38
2022/06/30 01:05:03;;;;;;;0.20;0.15;;;18.60;99.90;;;;;;4979568;28;89959;-34
2022/06/30 01:07:29;;;;;;;0.35;0.35;;;18.50;99.90;;;;;;5010167;22;90452;-34
2022/06/30 01:12:47;;;;;;;0.20;0.10;;;18.50;99.90;;;;;;4972182;28;89601;-34
2022/06/30 01:15:22;;;;;;;0.30;0.30;;;18.40;99.90;;;;;;4980575;28;88696;-34
2022/06/30 01:17:49;;;;;;;0.20;0.20;;;18.40;99.90;;;;;;4977231;28;90294;-33
2022/06/30 01:20:16;;;;;;;0.25;0.22;;;18.40;99.90;;;;;;4967811;28;89660;-34
2022/06/30 01:22:43;;;;;;;0.55;0.55;;;18.40;99.90;;;;;;4979568;28;88621;-37
2022/06/30 01:25:09;;;;;;;0.20;0.08;;;18.40;99.90;;;;;;4980818;28;88906;-37
2022/06/30 01:27:35;;;;;;;0.30;0.30;;;18.50;99.90;;;;;;4967322;28;89406;-34
2022/06/30 01:30:01;;;;;;;1.33;0.28;;;18.50;99.90;;;;;;4977325;28;90423;-33
2022/06/30 01:32:29;;;;;;;0.32;0.32;;;18.50;99.90;;;;;;4979339;28;91076;-34
2022/06/30 01:34:56;;;;;;;1.20;1.15;;;18.50;99.90;;;;;;4979336;28;89539;-33
2022/06/30 01:37:23;;;;;;;0.30;0.30;;;18.50;99.90;;;;;;4979312;28;90043;-36
2022/06/30 01:39:49;;;;;;;1.10;1.10;;;18.60;99.90;;;;;;4979905;28;89536;-34
2022/06/30 01:42:14;;;;;;;0.20;0.10;;;18.50;99.90;;;;;;4978728;28;88747;-36
2022/06/30 01:44:40;;;;;;;0.75;0.75;;;18.50;99.90;;;;;;4967053;28;89357;-36
2022/06/30 01:47:06;;;;;;;0.85;0.32;;;18.50;99.90;;;;;;4977427;28;90179;-39
2022/06/30 01:49:32;;;;;;;0.28;0.28;;;18.50;99.90;;;;;;4979456;28;89117;-34
2022/06/30 01:51:57;;;;;;;0.57;0.30;;;18.50;99.90;;;;;;4979339;28;89652;-34
2022/06/30 01:54:23;;;;;;;0.30;0.30;;;18.60;99.90;;;;;;4978944;28;89681;-35
2022/06/30 01:56:49;;;;;;;0.30;0.30;;;18.60;99.90;;;;;;4979328;28;90199;-33
2022/06/30 01:59:15;;;;;;;0.65;0.65;;;18.60;99.90;;;;;;4978877;28;89749;-34
2022/06/30 02:01:40;;;;;;;0.20;0.15;;;18.60;99.90;;;;;;4979465;28;90091;-37
2022/06/30 02:06:51;;;;;;;0.32;0.17;;;18.70;99.90;;;;;;4978708;28;90283;-35
2022/06/30 02:09:17;;;;;;;0.30;0.30;;;18.70;99.90;;;;;;4979137;28;89323;-33
2022/06/30 02:11:43;;;;;;;0.20;0.20;;;18.70;99.90;;;;;;4978745;28;89603;-36
2022/06/30 02:14:09;;;;;;;0.65;0.35;;;18.70;99.90;;;;;;4979130;28;88378;-36
2022/06/30 02:16:35;;;;;;;0.20;0.20;;;18.80;99.90;;;;;;4979387;28;91834;-37
2022/06/30 02:19:00;;;;;;;0.20;0.03;;;18.70;99.90;;;;;;4963779;28;90696;-34
2022/06/30 02:21:26;;;;;;;0.25;0.15;;;18.70;99.90;;;;;;4978001;28;90072;-35
2022/06/30 02:23:52;;;;;;;0.60;0.60;;;18.70;99.90;;;;;;4978413;28;89516;-33
2022/06/30 02:26:18;;;;;;;0.73;0.73;;;18.70;99.90;;;;;;4979074;28;90314;-36
2022/06/30 02:28:44;;;;;;;2.05;0.40;;;18.70;99.90;;;;;;4979043;28;90198;-36
2022/06/30 02:31:12;;;;;;;0.65;0.65;;;18.60;99.90;;;;;;4978537;28;89576;-34
2022/06/30 02:33:41;;;;;;;0.20;0.05;;;18.60;99.90;;;;;;4978837;28;88926;-37
2022/06/30 02:36:07;;;;;;;0.20;0.10;;;18.50;99.90;;;;;;4979207;28;91163;-39
2022/06/30 02:38:33;;;;;;;0.50;0.50;;;18.50;99.90;;;;;;4978801;28;89779;-34
2022/06/30 02:40:59;;;;;;;0.25;0.20;;;18.50;99.90;;;;;;4978710;28;89787;-34
2022/06/30 02:43:24;;;;;;;2.17;1.30;;;18.50;99.90;;;;;;4978158;28;89091;-34
2022/06/30 02:45:50;;;;;;;0.45;0.38;;;18.50;99.90;;;;;;4977750;28;89997;-36
2022/06/30 02:48:16;;;;;;;0.47;0.47;;;18.40;99.90;;;;;;4978508;28;89799;-34
2022/06/30 02:50:44;;;;;;;0.20;0.10;;;18.30;99.90;;;;;;4978434;28;89702;-37
2022/06/30 02:53:13;;;;;;;0.20;0.10;;;18.30;99.90;;;;;;4978416;28;89082;-37
2022/06/30 02:55:39;;;;;;;0.90;0.43;;;18.30;99.90;;;;;;4978165;28;90893;-34
2022/06/30 02:58:04;;;;;;;0.20;0.10;;;18.20;99.90;;;;;;4981577;28;90111;-35
2022/06/30 03:00:30;;;;;;;2.70;2.50;;;18.10;99.90;;;;;;4980220;28;89780;-39
2022/06/30 03:02:58;;;;;;;0.32;0.30;;;18.10;99.90;;;;;;4982489;28;89041;-34
2022/06/30 03:05:24;;;;;;;0.20;0.00;;;18.20;99.90;;;;;;4981146;28;90361;-34
2022/06/30 03:07:50;;;;;;;0.50;0.50;;;18.10;99.90;;;;;;4978730;28;90772;-37
2022/06/30 03:10:16;;;;;;;0.55;0.55;;;18.00;99.90;;;;;;4981385;28;90465;-38
2022/06/30 03:12:41;;;;;;;0.20;0.10;;;17.90;99.90;;;;;;4982237;28;88681;-33
2022/06/30 03:15:08;;;;;;;0.32;0.32;;;17.90;99.90;;;;;;4982077;28;91951;-32
2022/06/30 03:17:34;;;;;;;0.28;0.28;;;17.80;99.90;;;;;;4980652;28;91682;-35
2022/06/30 03:19:59;;;;;;;0.20;0.10;;;17.80;99.90;;;;;;4970254;28;90483;-32
2022/06/30 03:22:25;;;;;;;0.20;0.10;;;17.80;99.90;;;;;;4981537;28;89744;-38
2022/06/30 03:24:51;;;;;;;0.50;0.40;;;17.70;99.90;;;;;;4981888;28;90449;-32
2022/06/30 03:27:16;;;;;;;1.27;1.27;;;17.70;99.90;;;;;;4981742;28;89440;-34
2022/06/30 03:29:42;;;;;;;0.20;0.20;;;17.70;99.90;;;;;;4982185;28;90041;-36
2022/06/30 03:32:08;;;;;;;0.55;0.38;;;17.70;99.90;;;;;;4980901;28;90648;-34
2022/06/30 03:34:33;;;;;;;0.32;0.32;;;17.60;99.90;;;;;;4981447;28;90263;-37
2022/06/30 03:36:59;;;;;;;0.20;0.10;;;17.70;99.90;;;;;;4981332;28;89568;-36
2022/06/30 03:39:24;;;;;;;0.20;0.10;;;17.60;99.90;;;;;;4980935;28;90135;-39
2022/06/30 03:41:50;;;;;;;0.93;0.93;;;17.60;99.90;;;;;;4981515;28;89509;-35
2022/06/30 03:44:15;;;;;;;0.75;0.57;;;17.60;99.90;;;;;;4981421;28;90243;-34
2022/06/30 03:46:41;;;;;;;0.38;0.38;;;17.50;99.90;;;;;;4981309;28;89357;-33
2022/06/30 03:49:07;;;;;;;1.60;0.55;;;17.40;99.90;;;;;;4979944;28;89433;-33
2022/06/30 03:51:33;;;;;;;0.20;0.20;;;17.40;99.90;;;;;;4981696;28;89204;-35
2022/06/30 03:53:58;;;;;;;0.43;0.43;;;17.30;99.90;;;;;;4981029;28;91410;-34
2022/06/30 03:56:24;;;;;;;1.08;0.75;;;17.20;99.90;;;;;;4980661;28;89628;-34
2022/06/30 03:58:50;;;;;;;0.20;0.10;;;17.20;99.90;;;;;;4980693;28;92789;-37
2022/06/30 04:01:16;;;;;;;2.15;1.13;;;17.20;99.90;;;;;;4981277;28;89597;-33
2022/06/30 04:03:42;;;;;;;0.20;0.10;;;17.20;99.90;;;;;;4981002;28;90319;-37
2022/06/30 04:06:07;;;;;;;0.55;0.50;;;17.20;99.90;;;;;;4980632;28;89049;-36
2022/06/30 04:08:33;;;;;;;0.45;0.43;;;17.20;99.90;;;;;;4979830;28;90439;-39
2022/06/30 04:10:58;;;;;;;0.52;0.52;;;17.20;99.90;;;;;;4981162;28;87897;-34
2022/06/30 04:13:24;;;;;;;1.20;1.20;;;17.20;99.90;;;;;;4981116;28;90546;-35
2022/06/30 04:15:49;;;;;;;1.08;1.08;;;17.20;99.90;;;;;;4980638;28;90545;-37
2022/06/30 04:18:15;;;;;;;0.85;0.85;;;17.30;99.90;;;;;;4972475;28;89138;-34
2022/06/30 04:20:41;;;;;;;0.20;0.20;;;17.20;99.90;;;;;;4974577;28;89018;-37
2022/06/30 04:23:06;;;;;;;0.73;0.73;;;17.30;99.90;;;;;;4980849;28;90206;-36
2022/06/30 04:25:32;;;;;;;2.17;2.08;;;17.30;99.90;;;;;;4980770;28;89660;-38
2022/06/30 04:27:59;;;;;;;0.20;0.20;;;17.40;99.90;;;;;;4980703;28;88693;-34
2022/06/30 04:33:09;;;;;;;0.50;0.50;;;17.40;99.90;;;;;;4980636;28;90656;-33
2022/06/30 04:35:35;;;;;;;0.20;0.10;;;17.60;99.90;;;;;;4980270;28;89486;-38
2022/06/30 04:38:02;;;;;;;0.68;0.63;;;17.70;99.90;;;;;;4980673;28;89437;-34
2022/06/30 04:43:12;;;;;;;0.30;0.30;;;18.00;99.90;;;;;;4980245;28;90644;-35
2022/06/30 04:45:38;;;;;;;0.20;0.10;;;18.20;99.90;;;;;;4979926;28;90810;-33
2022/06/30 04:48:04;;;;;;;0.22;0.22;;;18.40;99.90;;;;;;4980361;28;90400;-34
2022/06/30 04:50:29;;;;;;;0.20;0.10;;;18.60;99.90;;;;;;4981104;28;89602;-33
2022/06/30 04:52:55;;;;;;;0.40;0.35;;;18.80;99.90;;;;;;4980207;28;90430;-34
2022/06/30 04:55:21;;;;;;;0.32;0.32;;;19.00;99.90;;;;;;4977885;28;89997;-35
2022/06/30 04:57:46;;;;;;;0.20;0.10;;;19.10;99.90;;;;;;4979825;28;89818;-38
2022/06/30 05:00:13;;;;;;;0.20;0.10;;;19.30;99.90;;;;;;4979778;28;89493;-36
2022/06/30 05:02:38;;;;;;;0.20;0.10;;;19.40;99.90;;;;;;4979820;28;90078;-33
2022/06/30 05:05:04;;;;;;;0.73;0.73;;;19.50;99.90;;;;;;4980019;28;89786;-35
2022/06/30 05:07:30;;;;;;;0.40;0.32;;;19.50;99.90;;;;;;4979050;28;89958;-34
2022/06/30 05:09:56;;;;;;;0.20;0.10;;;19.60;99.90;;;;;;4979686;28;90197;-38
2022/06/30 05:12:22;;;;;;;0.68;0.40;;;19.70;99.90;;;;;;4980399;28;90323;-36
2022/06/30 05:14:47;;;;;;;0.30;0.30;;;19.60;99.90;;;;;;4979528;28;90008;-36
2022/06/30 05:17:13;;;;;;;0.85;0.57;;;19.50;99.90;;;;;;4980329;28;89562;-37
2022/06/30 05:19:39;;;;;;;0.75;0.75;;;19.40;99.90;;;;;;4960646;28;89625;-37
2022/06/30 05:22:05;;;;;;;0.60;0.60;;;19.40;99.90;;;;;;4963862;28;90190;-36
2022/06/30 05:27:15;;;;;;;0.20;0.10;;;19.30;99.90;;;;;;4980309;28;89501;-38
2022/06/30 05:29:40;;;;;;;2.38;2.28;;;19.30;99.90;;;;;;4979407;28;88004;-34
2022/06/30 05:32:06;;;;;;;0.68;0.68;;;19.30;99.90;;;;;;4979335;28;90181;-34
2022/06/30 05:34:32;;;;;;;0.93;0.65;;;19.30;99.90;;;;;;4979121;28;90623;-38
2022/06/30 05:36:58;;;;;;;0.75;0.35;;;19.40;99.90;;;;;;4979750;28;90378;-34
2022/06/30 05:39:24;;;;;;;0.73;0.65;;;19.60;99.90;;;;;;4979705;28;89845;-34
2022/06/30 05:41:49;;;;;;;0.65;0.65;;;19.80;99.90;;;;;;4979156;28;90475;-34
2022/06/30 05:44:15;;;;;;;0.80;0.80;;;19.90;99.90;;;;;;4972439;28;89842;-35
2022/06/30 05:46:40;;;;;;;0.20;0.10;;;20.20;99.90;;;;;;4976852;28;89505;-36
2022/06/30 05:49:08;;;;;;;0.30;0.30;;;20.40;99.90;;;;;;4979102;28;87693;-35
2022/06/30 05:51:34;;;;;;;0.30;0.30;;;20.50;99.90;;;;;;4976073;28;89683;-37
2022/06/30 05:53:59;;;;;;;0.28;0.22;;;20.80;99.90;;;;;;4970286;28;89623;-33
2022/06/30 05:56:25;;;;;;;0.43;0.43;;;20.90;99.90;;;;;;4975840;28;89455;-37
2022/06/30 05:58:50;;;;;;;0.75;0.75;;;21.10;99.90;;;;;;4977644;28;89692;-37
2022/06/30 06:01:16;;;;;;;0.22;0.20;;;21.10;99.90;;;;;;4977066;28;90389;-38
2022/06/30 06:03:42;;;;;;;0.38;0.38;;;21.20;99.90;;;;;;4977257;28;89652;-38
2022/06/30 06:06:07;;;;;;;0.47;0.47;;;21.30;99.90;;;;;;4976069;28;90128;-36
2022/06/30 06:08:33;;;;;;;1.08;0.88;;;21.30;99.90;;;;;;4976796;28;89111;-37
2022/06/30 06:10:58;;;;;;;1.83;0.93;;;21.50;99.90;;;;;;4977223;28;90481;-33
2022/06/30 06:13:24;;;;;;;0.20;0.10;;;21.50;99.90;;;;;;4976650;28;89730;-34
2022/06/30 06:15:49;;;;;;;2.10;2.00;;;21.60;99.90;;;;;;4977036;28;89785;-36
2022/06/30 06:18:16;;;;;;;2.03;0.55;;;21.50;99.90;;;;;;4969161;28;88588;-37
2022/06/30 06:20:42;;;;;;;0.45;0.43;;;21.50;99.90;;;;;;4971281;28;90039;-35
2022/06/30 06:23:08;;;;;;;0.28;0.28;;;21.60;99.90;;;;;;4976557;28;90094;-35
2022/06/30 06:25:33;;;;;;;0.20;0.20;;;21.70;99.90;;;;;;4976295;28;89430;-33
2022/06/30 06:30:43;;;;;;;4.22;0.85;;;22.00;99.90;;;;;;4976393;28;89302;-37
2022/06/30 06:33:10;;;;;;;0.93;0.88;;;22.30;99.90;;;;;;4979855;28;89928;-35
2022/06/30 06:35:35;;;;;;;0.32;0.32;;;22.50;99.90;;;;;;4980223;28;89214;-34
2022/06/30 06:38:01;;;;;;;0.22;0.22;;;22.70;99.90;;;;;;4980525;28;89697;-34
2022/06/30 06:40:28;;;;;;;0.28;0.28;;;22.90;99.90;;;;;;4980327;28;89994;-37
2022/06/30 06:42:54;;;;;;;0.57;0.47;;;23.10;99.90;;;;;;4979048;28;89880;-35
2022/06/30 06:45:19;;;;;;;0.47;0.47;;;23.10;99.90;;;;;;4980257;28;89587;-41
2022/06/30 06:47:46;;;;;;;0.52;0.52;;;23.20;99.90;;;;;;4980065;28;89329;-35
2022/06/30 06:50:11;;;;;;;1.17;1.08;;;23.20;99.90;;;;;;4979750;28;90193;-35
2022/06/30 06:52:37;;;;;;;0.40;0.40;;;23.20;99.90;;;;;;4980274;28;89291;-35
2022/06/30 06:55:03;;;;;;;0.40;0.32;;;23.40;99.90;;;;;;4980174;28;89031;-36
2022/06/30 06:57:37;;;;;;;0.47;0.40;;;23.60;99.90;;;;;;4980305;28;89221;-37
2022/06/30 07:00:07;;;;;;;0.68;0.32;;;23.70;99.90;;;;;;4980126;28;90132;-37
2022/06/30 07:02:33;;;;;;;0.20;0.10;;;24.00;99.90;;;;;;4980224;28;89811;-33
2022/06/30 07:04:59;;;;;;;1.25;1.15;;;24.10;99.90;;;;;;4979504;28;90110;-34
2022/06/30 07:07:25;;;;;;;0.63;0.63;;;24.30;99.90;;;;;;4979646;28;89515;-35
2022/06/30 07:09:50;;;;;;;2.47;0.38;;;24.60;99.90;;;;;;4978376;28;90157;-37
2022/06/30 07:12:16;;;;;;;1.15;1.05;;;24.80;99.90;;;;;;4977839;28;90808;-36
2022/06/30 07:14:42;;;;;;;1.00;1.00;;;24.80;99.90;;;;;;4979926;28;90288;-35
2022/06/30 07:17:07;;;;;;;0.30;0.30;;;24.60;99.90;;;;;;4979220;28;88852;-36
2022/06/30 07:19:33;;;;;;;0.20;0.20;;;24.70;99.90;;;;;;4966012;28;90313;-36
2022/06/30 07:21:58;;;;;;;0.20;0.15;;;24.80;99.90;;;;;;4978872;28;89690;-35
2022/06/30 07:24:24;;;;;;;0.30;0.20;;;24.90;99.90;;;;;;4980084;28;89645;-39
2022/06/30 07:26:49;;;;;;;0.88;0.88;;;25.00;99.90;;;;;;4979095;28;88437;-38
2022/06/30 07:29:16;;;;;;;0.57;0.57;;;25.20;99.90;;;;;;4979530;28;89962;-37
2022/06/30 07:31:42;;;;;;;0.45;0.45;;;24.90;99.90;;;;;;4978844;28;89579;-35
2022/06/30 07:34:07;;;;;;;0.38;0.38;;;25.00;99.90;;;;;;4978701;28;89715;-38
2022/06/30 07:36:33;;;;;;;0.28;0.25;;;25.10;99.90;;;;;;4979402;28;90506;-35
2022/06/30 07:38:59;;;;;;;0.80;0.50;;;25.30;99.90;;;;;;4980031;28;91209;-36
2022/06/30 07:41:25;;;;;;;0.63;0.63;;;25.30;99.90;;;;;;4980011;28;90632;-35
2022/06/30 07:43:51;;;;;;;0.28;0.28;;;25.50;99.90;;;;;;4978373;28;89751;-34
2022/06/30 07:46:17;;;;;;;0.20;0.10;;;25.40;99.90;;;;;;4969087;28;89095;-36
2022/06/30 07:48:43;;;;;;;0.65;0.43;;;25.70;99.90;;;;;;4973755;28;89391;-36
2022/06/30 07:51:09;;;;;;;0.38;0.35;;;26.00;99.90;;;;;;4970604;28;89935;-35
2022/06/30 07:53:34;;;;;;;0.32;0.32;;;26.30;99.90;;;;;;4964921;28;89357;-37
2022/06/30 07:56:00;;;;;;;0.80;0.77;;;26.20;99.90;;;;;;4972804;28;89968;-36
2022/06/30 07:58:26;;;;;;;1.23;1.23;;;26.20;99.90;;;;;;4977638;28;91028;-35
2022/06/30 08:00:51;;;;;;;0.30;0.20;;;26.10;99.90;;;;;;4976774;28;90271;-38
2022/06/30 08:03:17;;;;;;;0.95;0.20;;;26.20;99.90;;;;;;4978609;28;90409;-39
2022/06/30 08:05:43;;;;;;;0.63;0.63;;;26.20;99.90;;;;;;4979271;28;88492;-34
2022/06/30 08:08:08;;;;;;;0.47;0.47;;;26.30;99.90;;;;;;4978570;28;90243;-35
2022/06/30 08:10:34;;;;;;;0.50;0.50;;;26.50;99.90;;;;;;4978075;28;89168;-39
2022/06/30 08:13:00;;;;;;;2.08;1.58;;;26.50;99.90;;;;;;4979438;28;90033;-36
2022/06/30 08:15:25;;;;;;;0.30;0.30;;;26.60;99.90;;;;;;4978605;28;89301;-34
2022/06/30 08:17:52;;;;;;;0.45;0.45;;;26.50;99.90;;;;;;4974216;28;89888;-37
2022/06/30 08:20:17;;;;;;;0.20;0.15;;;26.80;99.90;;;;;;4969780;28;89679;-33
2022/06/30 08:22:43;;;;;;;1.13;0.80;;;26.80;99.90;;;;;;4978418;28;89252;-36
2022/06/30 08:25:09;;;;;;;1.23;1.13;;;27.00;99.90;;;;;;4978904;28;89957;-35
2022/06/30 08:27:35;;;;;;;0.93;0.45;;;27.20;99.90;;;;;;4978018;28;90348;-36
2022/06/30 08:30:00;;;;;;;0.65;0.63;;;27.20;99.90;;;;;;4978959;28;89749;-35
2022/06/30 08:32:26;;;;;;;1.75;1.65;;;27.10;99.90;;;;;;4944730;28;90082;-34
2022/06/30 08:34:52;;;;;;;0.20;0.10;;;27.30;99.90;;;;;;4968220;28;89445;-35
2022/06/30 08:37:17;;;;;;;2.05;1.95;;;27.30;99.90;;;;;;4958101;28;88790;-34
2022/06/30 08:42:30;;;;;;;1.40;1.40;;;27.50;99.90;;;;;;4959239;28;89713;-37
2022/06/30 08:47:41;;;;;;;1.20;0.65;;;27.40;99.90;;;;;;4937806;28;90325;-34
2022/06/30 08:50:08;;;;;;;1.58;0.88;;;27.40;99.90;;;;;;4938278;28;90796;-37
2022/06/30 08:52:52;;;;;;;0.82;0.82;;;27.50;99.90;;;;;;4939373;28;91230;-33
2022/06/30 08:55:22;;;;;;;0.93;0.93;;;27.40;99.90;;;;;;4938119;28;89526;-39
2022/06/30 08:57:48;;;;;;;1.27;1.27;;;27.60;99.90;;;;;;4937571;28;90339;-36
2022/06/30 09:00:16;;;;;;;1.95;1.85;;;27.50;99.90;;;;;;4938240;28;89282;-36
2022/06/30 09:02:43;;;;;;;1.77;1.67;;;27.70;99.90;;;;;;4938231;28;89328;-35
2022/06/30 09:05:09;;;;;;;0.57;0.50;;;27.90;99.90;;;;;;4938166;28;89175;-35
2022/06/30 09:07:35;;;;;;;0.68;0.68;;;27.70;99.90;;;;;;4937381;28;90502;-38
2022/06/30 09:10:02;;;;;;;1.08;1.05;;;27.80;99.90;;;;;;4940197;28;89235;-35
2022/06/30 09:12:28;;;;;;;0.57;0.43;;;27.90;99.90;;;;;;4937305;28;89430;-36
2022/06/30 09:14:54;;;;;;;1.15;1.08;;;28.10;99.90;;;;;;4940725;28;89332;-35
2022/06/30 09:17:23;;;;;;;0.85;0.80;;;27.90;99.90;;;;;;4938032;28;90033;-36
2022/06/30 09:20:04;;;;;;;1.40;1.40;;;27.80;99.90;;;;;;4937944;28;90155;-39
2022/06/30 09:22:34;;;;;;;0.77;0.77;;;27.80;99.90;;;;;;4938601;28;89940;-36
2022/06/30 09:25:06;;;;;;;0.63;0.63;;;28.00;99.90;;;;;;4938413;28;89321;-35
2022/06/30 09:27:37;;;;;;;0.77;0.77;;;28.20;99.90;;;;;;4938745;28;90916;-36
2022/06/30 09:30:14;;;;;;;0.57;0.43;;;28.40;99.90;;;;;;4937237;28;90037;-38
2022/06/30 09:32:50;;;;;;;0.20;0.13;;;28.40;99.90;;;;;;4938196;28;92116;-34
2022/06/30 09:35:17;;;;;;;2.08;1.02;;;28.40;99.90;;;;;;4938247;28;88801;-36
2022/06/30 09:37:43;;;;;;;1.23;1.20;;;28.60;99.90;;;;;;4937158;28;90248;-39
2022/06/30 09:40:10;;;;;;;2.08;2.00;;;28.20;99.90;;;;;;4950924;28;91032;-38
2022/06/30 09:42:42;;;;;;;1.55;1.25;;;28.20;99.90;;;;;;4937759;28;89540;-35
2022/06/30 09:45:11;;;;;;;1.80;0.95;;;28.50;99.90;;;;;;4967983;28;88785;-35
2022/06/30 09:47:49;;;;;;;0.38;0.38;;;28.70;99.90;;;;;;4936766;28;90103;-36
2022/06/30 09:50:15;;;;;;;0.30;0.30;;;29.00;99.90;;;;;;4937776;28;89211;-37
2022/06/30 09:52:41;;;;;;;1.27;1.17;;;28.80;99.90;;;;;;4937306;28;89918;-35
2022/06/30 09:55:08;;;;;;;0.30;0.30;;;28.70;99.90;;;;;;4937566;28;88300;-35
2022/06/30 09:57:52;;;;;;;;;;;28.70;99.90;;;;;;4938683;28;90116;-34
2022/06/30 10:00:18;;;;;;;0.45;0.45;;;28.70;99.90;;;;;;4938299;28;89553;-37
2022/06/30 10:02:49;;;;;;;1.85;0.50;;;28.60;99.90;;;;;;4938240;28;90056;-34
2022/06/30 10:05:16;;;;;;;0.20;0.15;;;28.40;99.90;;;;;;4937373;28;89581;-37
2022/06/30 10:07:42;;;;;;;0.77;0.70;;;28.20;99.90;;;;;;4936031;28;90273;-33
2022/06/30 10:10:14;;;;;;;1.10;1.00;;;28.20;99.90;;;;;;4937030;28;90057;-35
2022/06/30 10:12:43;;;;;;;2.83;1.05;;;28.10;99.90;;;;;;4937603;28;91417;-34
2022/06/30 10:15:11;;;;;;;3.03;2.38;;;28.30;99.90;;;;;;4937784;28;89197;-36
2022/06/30 10:17:44;;;;;;;1.85;1.75;;;28.30;99.90;;;;;;4937060;28;89881;-35
2022/06/30 10:20:10;;;;;;;2.67;1.45;;;28.60;99.90;;;;;;4946859;28;89609;-34
2022/06/30 10:22:39;;;;;;;0.65;0.65;;;28.30;99.90;;;;;;4956781;28;89288;-35
2022/06/30 10:25:05;;;;;;;7.10;1.92;;;28.20;99.90;;;;;;4956924;28;89894;-37
2022/06/30 10:27:31;;;;;;;1.30;1.30;;;28.20;99.90;;;;;;4957011;28;90444;-38
2022/06/30 10:30:09;;;;;;;1.98;1.13;;;27.90;99.90;;;;;;4955982;28;90735;-34
2022/06/30 10:33:07;;;;;;;;;;;27.60;99.90;;;;;;4956762;28;90387;-37
2022/06/30 10:35:45;;;;;;;1.02;0.93;;;27.30;99.90;;;;;;4937711;28;89855;-37
2022/06/30 10:38:37;;;;;;;1.20;0.98;;;26.90;99.90;;;;;;4953896;28;89935;-35
2022/06/30 10:41:12;;;;;;;1.42;1.33;;;26.80;99.90;;;;;;4956555;28;89704;-34
2022/06/30 10:44:03;;;;;;;0.43;0.40;;;26.70;99.90;;;;;;4937594;28;89569;-36
2022/06/30 10:46:29;;;;;;;0.43;0.43;;;26.60;99.90;;;;;;4936956;28;89283;-39
2022/06/30 10:48:55;;;;;;;1.42;1.10;;;26.50;99.90;;;;;;4936760;28;90284;-34
2022/06/30 10:51:21;;;;;;;0.20;0.00;;;26.40;99.90;;;;;;4936499;28;89486;-38
2022/06/30 10:53:50;;;;;;;1.48;0.52;;;26.40;99.90;;;;;;4936369;28;89403;-37
2022/06/30 10:56:16;;;;;;;0.60;0.57;;;26.40;99.90;;;;;;4935991;28;89275;-39
2022/06/30 10:59:07;;;;;;;3.78;3.55;;;26.30;99.90;;;;;;4936940;28;90400;-34
2022/06/30 11:01:33;;;;;;;0.30;0.22;;;26.40;99.90;;;;;;4936313;28;89628;-35
2022/06/30 11:04:00;;;;;;;0.30;0.30;;;26.90;99.90;;;;;;4936772;28;89099;-36
2022/06/30 11:06:55;;;;;;;3.72;2.15;;;27.00;99.90;;;;;;4936996;28;88404;-35
2022/06/30 11:09:43;;;;;;;1.35;1.35;;;27.10;99.90;;;;;;4936297;28;89754;-34
2022/06/30 11:12:12;;;;;;;1.88;1.77;;;27.10;99.90;;;;;;4936142;28;89177;-36
2022/06/30 11:14:48;;;;;;;0.95;0.95;;;26.90;99.90;;;;;;4936844;28;89205;-32
2022/06/30 11:17:15;;;;;;;0.95;0.55;;;26.80;99.90;;;;;;4936665;28;88974;-36
2022/06/30 11:19:40;;;;;;;1.17;1.07;;;26.80;99.90;;;;;;4937237;28;90120;-36
2022/06/30 11:22:07;;;;;;;0.20;0.10;;;26.60;99.90;;;;;;4938474;28;90749;-37
2022/06/30 11:24:39;;;;;;;0.20;0.10;;;26.60;99.90;;;;;;4939431;28;90087;-38
2022/06/30 11:27:19;;;;;;;0.60;0.55;;;27.00;99.90;;;;;;4939189;28;89935;-39
2022/06/30 11:29:58;;;;;;;2.78;2.67;;;27.40;99.90;;;;;;4938685;28;90144;-34
2022/06/30 11:32:24;;;;;;;1.33;1.20;;;27.90;99.90;;;;;;4938399;28;90068;-36
2022/06/30 11:34:50;;;;;;;0.35;0.35;;;28.10;99.90;;;;;;4939734;28;90300;-35
2022/06/30 11:37:21;;;;;;;0.63;0.63;;;27.90;99.90;;;;;;4939217;28;88657;-34
2022/06/30 11:39:46;;;;;;;1.38;1.27;;;27.90;99.90;;;;;;4948137;28;90246;-35
2022/06/30 11:42:12;;;;;;;0.80;0.35;;;27.70;99.90;;;;;;4958577;28;90347;-38
2022/06/30 11:44:42;;;;;;;0.35;0.10;;;27.50;99.90;;;;;;4959014;28;90045;-38
2022/06/30 11:47:12;;;;;;;0.60;0.60;;;27.40;99.90;;;;;;4959364;28;90595;-36
2022/06/30 11:49:48;;;;;;;0.88;0.77;;;27.40;99.90;;;;;;4959022;28;89209;-34
2022/06/30 11:52:37;;;;;;;0.38;0.28;;;27.40;99.90;;;;;;4959063;28;90075;-37
2022/06/30 11:55:12;;;;;;;0.60;0.60;;;27.50;99.90;;;;;;4959241;28;90108;-36
2022/06/30 11:57:43;;;;;;;0.30;0.25;;;27.60;99.90;;;;;;4958752;28;89328;-36
2022/06/30 12:00:13;;;;;;;0.43;0.43;;;27.90;99.90;;;;;;4958411;28;90371;-34
2022/06/30 12:02:41;;;;;;;0.95;0.95;;;28.10;99.90;;;;;;4958321;28;89387;-34
2022/06/30 12:05:09;;;;;;;1.02;0.70;;;28.00;99.90;;;;;;4958508;28;89328;-39
2022/06/30 12:07:36;;;;;;;0.82;0.82;;;28.10;99.90;;;;;;4958510;28;87642;-38
2022/06/30 12:10:04;;;;;;;1.00;0.73;;;28.00;99.90;;;;;;4958937;28;89055;-35
2022/06/30 12:12:32;;;;;;;0.60;0.60;;;28.00;99.90;;;;;;4958235;28;91963;-38
2022/06/30 12:14:59;;;;;;;0.70;0.70;;;27.90;99.90;;;;;;4958204;28;90549;-34
2022/06/30 12:17:30;;;;;;;0.55;0.55;;;28.10;99.90;;;;;;4958118;28;89707;-38
2022/06/30 12:19:56;;;;;;;0.20;0.20;;;28.30;99.90;;;;;;4945896;28;89966;-36
2022/06/30 12:22:22;;;;;;;0.70;0.63;;;28.60;91.90;;;;;;4958545;28;90762;-35
2022/06/30 12:24:50;;;;;;;0.88;0.88;;;28.70;81.30;;;;;;4958206;28;89766;-36
2022/06/30 12:27:32;;;;;;;2.13;0.80;;;28.50;99.90;;;;;;4958725;28;89193;-35
2022/06/30 12:30:07;;;;;;;0.93;0.93;;;28.30;99.90;;;;;;4957625;28;89047;-34
2022/06/30 12:32:33;;;;;;;1.48;1.38;;;28.00;99.90;;;;;;4958789;28;91137;-39
2022/06/30 12:35:01;;;;;;;0.55;0.55;;;28.00;99.90;;;;;;4958068;28;89291;-36
2022/06/30 12:37:36;;;;;;;0.20;0.20;;;28.30;95.30;;;;;;4958590;28;89426;-36
2022/06/30 12:40:07;;;;;;;0.45;0.45;;;28.70;95.70;;;;;;4957612;28;89280;-34
2022/06/30 12:42:59;;;;;;;0.40;0.38;;;28.90;93.00;;;;;;4958441;28;90928;-36
2022/06/30 12:45:56;;;;;;;0.28;0.20;;;28.90;76.60;;;;;;4957447;28;89476;-38
2022/06/30 12:48:54;;;;;;;1.30;1.20;;;29.00;83.70;;;;;;4959256;28;89531;-34
2022/06/30 12:51:32;;;;;;;0.60;0.60;;;29.10;90.90;;;;;;4958403;28;90263;-35
2022/06/30 12:54:02;;;;;;;0.20;0.20;;;29.10;85.70;;;;;;4945722;28;88628;-37
2022/06/30 12:56:28;;;;;;;0.20;0.20;;;29.20;96.10;;;;;;4958454;28;89107;-37
2022/06/30 12:58:59;;;;;;;0.32;0.32;;;29.30;90.90;;;;;;4958170;28;89741;-34
2022/06/30 13:01:38;;;;;;;0.82;0.82;;;29.30;84.90;;;;;;4957977;28;90564;-37
2022/06/30 13:04:11;;;;;;;0.20;0.20;;;29.20;87.90;;;;;;4956992;28;90850;-37
2022/06/30 13:06:41;;;;;;;0.32;0.32;;;29.10;91.10;;;;;;4957721;28;90818;-38
2022/06/30 13:09:09;;;;;;;0.82;0.82;;;29.20;91.50;;;;;;4991852;22;89663;-36
2022/06/30 13:11:37;;;;;;;0.55;0.55;;;29.40;92.80;;;;;;4938180;28;90477;-37
2022/06/30 13:14:04;;;;;;;0.73;0.73;;;29.40;87.80;;;;;;4938140;28;90540;-36